Terminal Aerodrome Forecast
Issued by NWS

Home | Current Version | Previous Version | Text Only | Print | Product List | Glossary On
Versions: 1 2 3 4 5 6 7 8 9 10 11 12 13 14 15
000
FTUS46 KHNX 190520
TAFBFL
TAF
KBFL 190520Z 1906/2006 28003KT P6SM OVC090
      TEMPO 1908/1912 18012G20KT 3SM +RA BR BKN030 OVC050
     FM191500 14010G20KT 3SM -SHRA BR SCT015 OVC030
     FM192000 16008KT 4SM -SHRA BKN025 OVC045 PROB30 1921/1924 -TSRA
      BKN040CB
     FM200000 34005KT 6SM HZ OVC100 PROB30 2000/2001 P6SM -SHRA
      OVC050=

USA.gov is the U.S. government's official web portal to all federal, state and local government web resources and services.